createdAt,value
2018-07-12T00:01:23.346Z,97.30
2018-07-12T00:03:50.486Z,97.30
2018-07-12T00:06:17.643Z,97.20
2018-07-12T00:08:44.788Z,96.80
2018-07-12T00:11:11.955Z,96.70
2018-07-12T00:13:39.098Z,96.40
2018-07-12T00:16:06.287Z,96.10
2018-07-12T00:18:33.426Z,96.00
2018-07-12T00:21:00.578Z,95.80
2018-07-12T00:23:27.760Z,95.80
2018-07-12T00:25:54.904Z,95.80
2018-07-12T00:28:22.042Z,95.80
2018-07-12T00:30:49.212Z,95.70
2018-07-12T00:33:16.369Z,95.70
2018-07-12T00:35:43.519Z,95.70
2018-07-12T00:38:10.670Z,95.70
2018-07-12T00:40:37.826Z,95.90
2018-07-12T00:43:04.982Z,96.00
2018-07-12T00:51:16.275Z,96.30
2018-07-12T00:53:43.455Z,96.20
2018-07-12T00:56:10.614Z,96.20
2018-07-12T00:58:37.786Z,96.00
2018-07-12T01:01:04.933Z,95.70
2018-07-12T01:03:32.104Z,95.70
2018-07-12T01:05:59.258Z,95.70
2018-07-12T01:08:26.438Z,95.50
2018-07-12T01:10:53.593Z,95.40
2018-07-12T01:13:20.746Z,95.30
2018-07-12T01:15:47.912Z,95.20
2018-07-12T01:18:15.053Z,95.10
2018-07-12T01:20:42.239Z,95.20
2018-07-12T01:25:36.842Z,95.40
2018-07-12T01:28:04.022Z,95.40
2018-07-12T01:30:31.190Z,95.50
2018-07-12T01:32:58.334Z,95.40
2018-07-12T01:35:25.494Z,95.30
2018-07-12T01:37:52.661Z,95.30
2018-07-12T01:40:19.821Z,95.40
2018-07-12T01:42:46.957Z,95.30
2018-07-12T01:45:14.099Z,95.30
2018-07-12T01:47:41.257Z,95.30
2018-07-12T01:50:08.414Z,95.30
2018-07-12T01:52:35.594Z,95.40
2018-07-12T01:55:02.742Z,95.60
2018-07-12T01:57:29.897Z,95.80
2018-07-12T01:59:57.058Z,95.60
2018-07-12T02:02:24.266Z,95.50
2018-07-12T02:04:51.442Z,95.50
2018-07-12T02:07:18.582Z,95.60
2018-07-12T02:09:45.748Z,95.70
2018-07-12T02:12:12.937Z,95.70
2018-07-12T02:14:40.100Z,96.00
2018-07-12T02:17:07.256Z,96.10
2018-07-12T02:19:34.410Z,95.90
2018-07-12T02:22:01.555Z,95.90
2018-07-12T02:24:28.720Z,95.90
2018-07-12T02:26:55.895Z,95.90
2018-07-12T02:29:23.067Z,95.80
2018-07-12T02:31:50.218Z,95.70
2018-07-12T02:34:17.408Z,95.40
2018-07-12T02:36:44.604Z,95.20
2018-07-12T02:39:11.741Z,95.10
2018-07-12T02:41:38.908Z,95.00
2018-07-12T02:44:06.079Z,95.00
2018-07-12T02:46:33.246Z,95.10
2018-07-12T02:49:00.382Z,95.20
2018-07-12T02:51:27.551Z,95.20
2018-07-12T02:53:54.717Z,95.30
2018-07-12T02:56:21.867Z,95.50
2018-07-12T02:58:49.257Z,95.90
2018-07-12T03:01:16.406Z,96.20
2018-07-12T03:03:43.601Z,96.50
2018-07-12T03:06:10.754Z,96.50
2018-07-12T03:08:37.921Z,96.40
2018-07-12T03:11:05.089Z,96.30
2018-07-12T03:13:32.251Z,96.40
2018-07-12T03:15:59.385Z,96.50
2018-07-12T03:18:26.541Z,96.60
2018-07-12T03:20:53.713Z,96.70
2018-07-12T03:23:20.847Z,96.80
2018-07-12T03:25:48.022Z,97.00
2018-07-12T03:28:15.176Z,97.10
2018-07-12T03:30:42.383Z,97.10
2018-07-12T03:33:09.538Z,96.90
2018-07-12T03:35:36.712Z,96.80
2018-07-12T03:38:03.865Z,96.80
2018-07-12T03:40:31.041Z,96.70
2018-07-12T03:42:58.181Z,96.60
2018-07-12T03:45:25.321Z,96.30
2018-07-12T03:47:52.490Z,95.90
2018-07-12T03:50:19.629Z,95.70
2018-07-12T03:52:46.919Z,95.50
2018-07-12T03:57:41.610Z,95.50
2018-07-12T04:00:08.759Z,95.30
2018-07-12T04:02:36.026Z,95.20
2018-07-12T04:05:03.184Z,95.20
2018-07-12T04:07:30.317Z,95.30
2018-07-12T04:09:57.482Z,95.50
2018-07-12T04:14:52.080Z,95.50
2018-07-12T04:17:26.660Z,95.50
2018-07-12T04:19:53.959Z,95.20
2018-07-12T04:22:21.132Z,93.40
2018-07-12T04:24:48.763Z,93.00
2018-07-12T04:27:15.937Z,92.60
2018-07-12T04:29:43.081Z,92.30
2018-07-12T04:34:37.679Z,92.10
2018-07-12T04:37:04.817Z,93.00
2018-07-12T04:39:31.966Z,93.10
2018-07-12T04:41:59.134Z,93.20
2018-07-12T04:44:26.687Z,93.10
2018-07-12T04:46:53.934Z,93.00
2018-07-12T04:49:21.889Z,93.00
2018-07-12T04:51:49.945Z,92.90
2018-07-12T04:54:17.122Z,92.60
2018-07-12T04:56:44.326Z,92.30
2018-07-12T04:59:11.512Z,92.50
2018-07-12T05:01:41.531Z,92.20
2018-07-12T05:04:08.797Z,92.10
2018-07-12T05:06:36.482Z,91.80
2018-07-12T05:09:04.681Z,91.30
2018-07-12T05:14:22.040Z,91.30
2018-07-12T05:16:50.819Z,90.90
2018-07-12T05:19:18.041Z,90.30
2018-07-12T05:21:45.331Z,90.00
2018-07-12T05:24:12.520Z,89.60
2018-07-12T05:26:39.678Z,88.40
2018-07-12T05:29:06.843Z,87.50
2018-07-12T05:31:34.022Z,86.30
2018-07-12T05:34:01.164Z,86.60
2018-07-12T05:37:04.714Z,86.30
2018-07-12T05:39:32.809Z,85.00
2018-07-12T05:42:00.944Z,83.90
2018-07-12T05:44:29.042Z,83.80
2018-07-12T05:46:57.174Z,84.20
2018-07-12T05:49:25.269Z,83.50
2018-07-12T05:51:53.382Z,83.20
2018-07-12T05:54:21.478Z,83.20
2018-07-12T05:56:49.595Z,82.90
2018-07-12T05:59:18.298Z,81.70
2018-07-12T06:01:58.271Z,82.10
2018-07-12T06:04:26.410Z,81.90
2018-07-12T06:06:55.164Z,80.80
2018-07-12T06:09:23.389Z,81.20
2018-07-12T06:11:51.608Z,81.60
2018-07-12T06:14:19.768Z,81.60
2018-07-12T06:16:48.011Z,82.20
2018-07-12T06:21:44.112Z,81.50
2018-07-12T06:24:12.267Z,80.70
2018-07-12T06:26:40.421Z,80.10
2018-07-12T06:29:08.572Z,78.80
2018-07-12T06:31:36.721Z,77.20
2018-07-12T06:34:04.886Z,76.60
2018-07-12T06:36:33.120Z,76.60
2018-07-12T06:39:01.295Z,76.50
2018-07-12T06:41:29.478Z,75.50
2018-07-12T06:43:57.644Z,73.40
2018-07-12T06:46:25.796Z,71.60
2018-07-12T06:48:53.971Z,70.80
2018-07-12T06:51:22.138Z,69.80
2018-07-12T06:53:50.433Z,68.60
2018-07-12T06:56:18.581Z,67.40
2018-07-12T06:58:46.751Z,64.90
2018-07-12T07:01:14.890Z,62.70
2018-07-12T07:03:43.082Z,61.80
2018-07-12T07:06:11.245Z,60.30
2018-07-12T07:08:39.407Z,60.30
2018-07-12T07:11:07.652Z,58.70
2018-07-12T07:13:35.823Z,57.60
2018-07-12T07:16:04.189Z,57.10
2018-07-12T07:18:32.376Z,55.60
2018-07-12T07:21:00.545Z,55.00
2018-07-12T07:23:28.728Z,53.10
2018-07-12T07:25:56.880Z,51.30
2018-07-12T07:28:25.060Z,51.30
2018-07-12T07:30:53.238Z,51.70
2018-07-12T07:33:21.408Z,52.00
2018-07-12T07:35:49.563Z,52.60
2018-07-12T07:38:17.760Z,51.80
2018-07-12T07:40:45.934Z,52.50
2018-07-12T07:43:14.272Z,52.50
2018-07-12T07:45:42.283Z,52.90
2018-07-12T07:48:10.455Z,53.20
2018-07-12T07:50:41.633Z,52.90
2018-07-12T07:53:10.105Z,53.90
2018-07-12T07:55:38.249Z,55.00
2018-07-12T07:58:06.419Z,55.00
2018-07-12T08:00:34.596Z,55.30
2018-07-12T08:03:02.751Z,56.40
2018-07-12T08:05:30.923Z,56.60
2018-07-12T08:07:59.106Z,57.60
2018-07-12T08:10:27.300Z,57.80
2018-07-12T08:12:55.475Z,58.90
2018-07-12T08:15:23.720Z,59.50
2018-07-12T08:17:51.905Z,59.90
2018-07-12T08:20:21.620Z,60.10
2018-07-12T08:22:49.780Z,60.90
2018-07-12T08:25:17.955Z,60.60
2018-07-12T08:27:57.291Z,60.90
2018-07-12T08:30:25.522Z,60.70
2018-07-12T08:32:53.691Z,59.60
2018-07-12T08:35:21.854Z,59.60
2018-07-12T08:37:50.031Z,59.40
2018-07-12T08:40:18.187Z,59.20
2018-07-12T08:42:46.444Z,60.40
2018-07-12T08:45:14.576Z,57.30
2018-07-12T08:47:42.748Z,55.80
2018-07-12T08:50:10.959Z,54.70
2018-07-12T08:52:39.139Z,53.70
2018-07-12T08:55:07.345Z,52.00
2018-07-12T08:57:35.535Z,50.80
2018-07-12T09:00:04.057Z,50.40
2018-07-12T09:02:32.215Z,48.90
2018-07-12T09:05:00.372Z,47.40
2018-07-12T09:07:28.567Z,47.00
2018-07-12T09:09:56.744Z,46.70
2018-07-12T09:12:24.932Z,46.00
2018-07-12T09:14:53.121Z,44.10
2018-07-12T09:17:21.301Z,43.20
2018-07-12T09:19:49.515Z,42.60
2018-07-12T09:24:45.602Z,45.10
2018-07-12T09:27:13.782Z,47.50
2018-07-12T09:29:41.976Z,48.80
2018-07-12T09:32:10.133Z,50.00
2018-07-12T09:34:38.411Z,50.10
2018-07-12T09:37:06.698Z,51.20
2018-07-12T09:39:34.846Z,51.80
2018-07-12T09:42:03.010Z,52.30
2018-07-12T09:44:31.161Z,52.50
2018-07-12T09:46:59.329Z,52.80
2018-07-12T09:49:27.485Z,51.90
2018-07-12T09:51:55.648Z,51.90
2018-07-12T09:57:03.272Z,51.50
2018-07-12T09:59:31.450Z,51.00
2018-07-12T10:02:04.995Z,50.80
2018-07-12T10:04:33.159Z,51.30
2018-07-12T10:07:06.656Z,52.10
2018-07-12T10:09:40.357Z,51.30
2018-07-12T10:12:14.657Z,50.80
2018-07-12T10:14:48.130Z,49.80
2018-07-12T10:17:21.835Z,49.10
2018-07-12T10:19:50.020Z,49.70
2018-07-12T10:22:18.227Z,49.40
2018-07-12T10:24:46.409Z,48.70
2018-07-12T10:27:14.602Z,48.60
2018-07-12T10:29:42.794Z,48.40
2018-07-12T10:32:10.950Z,49.40
2018-07-12T10:34:39.125Z,48.60
2018-07-12T10:37:07.284Z,48.50
2018-07-12T10:39:35.460Z,48.30
2018-07-12T10:42:03.639Z,47.60
2018-07-12T10:44:31.871Z,48.10
2018-07-12T10:47:00.018Z,49.50
2018-07-12T10:49:28.193Z,49.30
2018-07-12T10:51:56.380Z,48.30
2018-07-12T10:54:24.568Z,48.00
2018-07-12T10:56:52.811Z,47.80
2018-07-12T10:59:21.020Z,47.70
2018-07-12T11:01:49.204Z,47.70
2018-07-12T11:06:45.421Z,47.60
2018-07-12T11:09:13.715Z,47.00
2018-07-12T11:11:41.852Z,46.10
2018-07-12T11:14:10.077Z,44.30
2018-07-12T11:16:38.466Z,44.90
2018-07-12T11:19:06.676Z,44.00
2018-07-12T11:21:34.892Z,41.30
2018-07-12T11:24:03.060Z,42.00
2018-07-12T11:26:31.271Z,41.90
2018-07-12T11:28:59.448Z,42.20
2018-07-12T11:34:02.077Z,43.70
2018-07-12T11:36:30.236Z,44.80
2018-07-12T11:38:58.408Z,45.80
2018-07-12T11:41:26.602Z,46.80
2018-07-12T11:43:54.755Z,47.30
2018-07-12T11:46:22.941Z,46.70
2018-07-12T11:48:51.114Z,46.80
2018-07-12T11:51:19.440Z,46.60
2018-07-12T11:53:47.599Z,46.60
2018-07-12T11:56:15.760Z,46.20
2018-07-12T11:58:43.945Z,47.00
2018-07-12T12:01:12.113Z,47.60
2018-07-12T12:03:40.299Z,47.20
2018-07-12T12:06:08.448Z,47.70
2018-07-12T12:08:36.773Z,47.10
2018-07-12T12:11:04.995Z,47.80
2018-07-12T12:13:33.203Z,48.00
2018-07-12T12:16:01.349Z,47.20
2018-07-12T12:18:29.507Z,46.80
2018-07-12T12:20:57.651Z,47.00
2018-07-12T12:23:25.855Z,46.90
2018-07-12T12:25:54.021Z,46.00
2018-07-12T12:28:22.172Z,46.10
2018-07-12T12:30:50.344Z,46.50
2018-07-12T12:33:18.749Z,45.70
2018-07-12T12:35:46.916Z,44.80
2018-07-12T12:38:15.088Z,43.30
2018-07-12T12:40:43.276Z,42.20
2018-07-12T12:43:11.463Z,41.00
2018-07-12T12:45:39.643Z,41.60
2018-07-12T12:48:14.307Z,40.20
2018-07-12T12:50:42.475Z,38.80
2018-07-12T12:53:10.633Z,37.30
2018-07-12T12:55:38.865Z,36.90
2018-07-12T12:58:06.979Z,34.80
2018-07-12T13:00:35.157Z,34.00
2018-07-12T13:03:03.305Z,33.80
2018-07-12T13:05:31.464Z,33.00
2018-07-12T13:07:59.739Z,32.30
2018-07-12T13:10:27.862Z,32.40
2018-07-12T13:12:56.012Z,33.60
2018-07-12T13:15:24.233Z,35.00
2018-07-12T13:17:52.383Z,34.70
2018-07-12T13:20:20.556Z,36.20
2018-07-12T13:22:48.726Z,35.90
2018-07-12T13:25:16.881Z,37.10
2018-07-12T13:27:45.131Z,33.10
2018-07-12T13:30:13.272Z,31.60
2018-07-12T13:32:41.459Z,32.60
2018-07-12T13:35:09.700Z,33.90
2018-07-12T13:37:37.882Z,36.10
2018-07-12T13:40:06.072Z,36.00
2018-07-12T13:42:34.305Z,37.00
2018-07-12T13:45:02.555Z,37.30
2018-07-12T13:47:30.724Z,37.60
2018-07-12T13:49:58.884Z,39.50
2018-07-12T13:52:27.075Z,38.80
2018-07-12T13:54:55.244Z,39.00
2018-07-12T13:57:23.417Z,39.00
2018-07-12T14:02:19.606Z,36.60
2018-07-12T14:04:47.782Z,37.10
2018-07-12T14:07:16.079Z,37.20
2018-07-12T14:09:44.292Z,36.80
2018-07-12T14:12:12.448Z,35.20
2018-07-12T14:14:40.767Z,34.80
2018-07-12T14:17:08.929Z,35.10
2018-07-12T14:19:37.113Z,34.60
2018-07-12T14:22:05.328Z,34.90
2018-07-12T14:24:33.512Z,36.70
2018-07-12T14:27:01.703Z,36.90
2018-07-12T14:29:29.896Z,37.20
2018-07-12T14:31:58.068Z,37.70
2018-07-12T14:34:26.257Z,38.50
2018-07-12T14:36:54.540Z,38.10
2018-07-12T14:39:22.865Z,37.90
2018-07-12T14:41:51.232Z,39.50
2018-07-12T14:44:19.408Z,39.40
2018-07-12T14:46:47.614Z,39.30
2018-07-12T14:49:16.056Z,40.10
2018-07-12T14:51:44.230Z,39.50
2018-07-12T14:54:12.414Z,39.80
2018-07-12T14:56:40.608Z,39.40
2018-07-12T14:59:08.773Z,39.50
2018-07-12T15:01:36.989Z,39.30
2018-07-12T15:04:05.135Z,38.70
2018-07-12T15:06:33.315Z,37.60
2018-07-12T15:09:01.493Z,37.70
2018-07-12T15:11:29.683Z,36.90
2018-07-12T15:16:25.874Z,34.80
2018-07-12T15:18:54.088Z,32.60
2018-07-12T15:23:50.255Z,32.30
2018-07-12T15:26:18.579Z,33.00
2018-07-12T15:31:14.651Z,35.40
2018-07-12T15:33:42.953Z,36.80
2018-07-12T15:36:11.135Z,37.00
2018-07-12T15:38:39.321Z,36.80
2018-07-12T15:41:07.955Z,37.00
2018-07-12T15:43:36.144Z,38.00
2018-07-12T15:46:04.368Z,38.60
2018-07-12T15:48:32.996Z,39.10
2018-07-12T15:51:01.145Z,39.20
2018-07-12T15:53:29.321Z,40.60
2018-07-12T15:55:57.501Z,39.40
2018-07-12T15:58:25.718Z,38.90
2018-07-12T16:00:53.900Z,38.90
2018-07-12T16:03:22.132Z,39.50
2018-07-12T16:05:50.301Z,39.70
2018-07-12T16:08:18.483Z,39.40
2018-07-12T16:10:46.699Z,38.60
2018-07-12T16:13:14.879Z,37.70
2018-07-12T16:15:43.073Z,37.80
2018-07-12T16:20:39.361Z,38.00
2018-07-12T16:23:07.546Z,38.60
2018-07-12T16:25:36.486Z,39.60
2018-07-12T16:28:04.648Z,38.70
2018-07-12T16:30:32.840Z,39.00
2018-07-12T16:33:01.021Z,38.50
2018-07-12T16:35:29.189Z,39.30
2018-07-12T16:37:57.364Z,39.20
2018-07-12T16:40:25.536Z,38.90
2018-07-12T16:42:53.733Z,39.40
2018-07-12T16:45:21.879Z,39.30
2018-07-12T16:47:50.040Z,39.30
2018-07-12T16:50:18.227Z,39.70
2018-07-12T16:52:46.399Z,40.40
2018-07-12T16:55:14.587Z,40.10
2018-07-12T16:57:42.761Z,40.80
2018-07-12T17:00:10.941Z,41.10
2018-07-12T17:02:39.339Z,40.50
2018-07-12T17:05:07.543Z,39.70
2018-07-12T17:07:35.721Z,39.20
2018-07-12T17:10:03.971Z,39.40
2018-07-12T17:12:32.152Z,39.90
2018-07-12T17:15:00.397Z,39.80
2018-07-12T17:17:28.586Z,40.20
2018-07-12T17:19:56.736Z,41.10
2018-07-12T17:22:25.040Z,43.70
2018-07-12T17:27:21.244Z,45.80
2018-07-12T17:29:49.416Z,46.50
2018-07-12T17:32:17.573Z,47.50
2018-07-12T17:34:45.854Z,49.00
2018-07-12T17:37:14.022Z,49.30
2018-07-12T17:39:42.209Z,50.20
2018-07-12T17:42:10.375Z,49.40
2018-07-12T17:44:38.524Z,51.20
2018-07-12T17:47:06.766Z,50.90
2018-07-12T17:49:34.924Z,51.10
2018-07-12T17:52:04.064Z,52.10
2018-07-12T17:54:32.276Z,53.20
2018-07-12T17:57:00.659Z,54.40
2018-07-12T17:59:28.876Z,54.40
2018-07-12T18:01:57.092Z,54.90
2018-07-12T18:04:25.282Z,55.60
2018-07-12T18:06:53.469Z,55.50
2018-07-12T18:09:21.660Z,55.90
2018-07-12T18:11:49.852Z,56.40
2018-07-12T18:14:18.014Z,56.90
2018-07-12T18:16:46.367Z,57.00
2018-07-12T18:19:14.641Z,57.50
2018-07-12T18:21:42.816Z,57.80
2018-07-12T18:24:10.993Z,57.90
2018-07-12T18:26:39.376Z,58.60
2018-07-12T18:29:07.772Z,58.70
2018-07-12T18:31:36.171Z,58.90
2018-07-12T18:34:04.487Z,59.20
2018-07-12T18:36:32.832Z,58.80
2018-07-12T18:39:00.992Z,58.70
2018-07-12T18:44:03.955Z,59.40
2018-07-12T18:46:32.244Z,59.60
2018-07-12T18:49:00.466Z,59.70
2018-07-12T18:51:28.787Z,59.80
2018-07-12T18:53:57.091Z,60.00
2018-07-12T18:56:25.409Z,60.70
2018-07-12T18:58:53.615Z,61.20
2018-07-12T19:01:21.782Z,61.60
2018-07-12T19:03:49.962Z,62.20
2018-07-12T19:06:18.127Z,62.60
2018-07-12T19:08:46.436Z,63.20
2018-07-12T19:11:14.902Z,63.60
2018-07-12T19:13:43.063Z,63.80
2018-07-12T19:16:11.359Z,64.10
2018-07-12T19:18:39.600Z,64.40
2018-07-12T19:21:07.831Z,64.90
2018-07-12T19:23:36.071Z,66.30
2018-07-12T19:26:04.792Z,68.60
2018-07-12T19:28:33.072Z,70.10
2018-07-12T19:31:01.538Z,71.10
2018-07-12T19:33:29.794Z,71.20
2018-07-12T19:35:57.986Z,71.30
2018-07-12T19:38:26.263Z,71.20
2018-07-12T19:40:54.628Z,71.80
2018-07-12T19:43:22.879Z,72.60
2018-07-12T19:45:51.286Z,72.90
2018-07-12T19:48:19.542Z,73.40
2018-07-12T19:50:47.897Z,74.00
2018-07-12T19:53:16.098Z,76.30
2018-07-12T19:55:44.268Z,77.90
2018-07-12T19:58:12.491Z,77.80
2018-07-12T20:00:40.704Z,77.20
2018-07-12T20:03:08.988Z,77.50
2018-07-12T20:05:37.208Z,78.40
2018-07-12T20:08:05.537Z,79.10
2018-07-12T20:10:33.718Z,79.70
2018-07-12T20:13:25.183Z,81.00
2018-07-12T20:15:54.077Z,82.70
2018-07-12T20:18:22.356Z,85.40
2018-07-12T20:20:50.600Z,87.30
2018-07-12T20:23:19.028Z,88.80
2018-07-12T20:25:47.314Z,88.50
2018-07-12T20:28:15.468Z,88.30
2018-07-12T20:30:43.708Z,89.20
2018-07-12T20:33:12.840Z,88.80
2018-07-12T20:35:41.011Z,89.00
2018-07-12T20:38:09.183Z,89.10
2018-07-12T20:40:37.347Z,90.20
2018-07-12T20:43:05.508Z,90.40
2018-07-12T20:45:33.664Z,90.80
2018-07-12T20:48:01.876Z,91.30
2018-07-12T20:50:30.004Z,91.50
2018-07-12T20:52:58.181Z,91.50
2018-07-12T20:55:26.415Z,91.90
2018-07-12T20:57:54.706Z,92.40
2018-07-12T21:00:22.861Z,92.50
2018-07-12T21:02:51.054Z,92.80
2018-07-12T21:05:19.213Z,92.80
2018-07-12T21:07:47.404Z,93.10
2018-07-12T21:10:15.598Z,93.60
2018-07-12T21:12:43.768Z,93.50
2018-07-12T21:15:11.919Z,93.70
2018-07-12T21:17:40.104Z,93.90
2018-07-12T21:20:08.252Z,94.10
2018-07-12T21:22:36.436Z,94.30
2018-07-12T21:25:04.615Z,94.50
2018-07-12T21:27:32.784Z,94.60
2018-07-12T21:30:00.946Z,94.70
2018-07-12T21:32:29.126Z,94.90
2018-07-12T21:34:57.378Z,95.30
2018-07-12T21:37:25.588Z,95.40
2018-07-12T21:39:54.423Z,95.70
2018-07-12T21:42:22.629Z,95.70
2018-07-12T21:44:50.799Z,95.70
2018-07-12T21:47:19.609Z,95.80
2018-07-12T21:49:47.914Z,95.90
2018-07-12T21:52:16.092Z,96.10
2018-07-12T21:54:44.307Z,96.20
2018-07-12T21:57:12.559Z,96.30
2018-07-12T21:59:40.759Z,96.60
2018-07-12T22:02:08.924Z,96.90
2018-07-12T22:04:37.099Z,97.10
2018-07-12T22:07:18.299Z,97.20
2018-07-12T22:09:46.445Z,97.40
2018-07-12T22:12:14.616Z,97.60
2018-07-12T22:14:42.839Z,97.70
2018-07-12T22:17:11.025Z,97.90
2018-07-12T22:19:39.194Z,98.20
2018-07-12T22:22:07.350Z,98.50
2018-07-12T22:24:35.526Z,98.60
2018-07-12T22:27:03.703Z,98.60
2018-07-12T22:31:59.819Z,98.90
2018-07-12T22:34:27.972Z,99.10
2018-07-12T22:36:56.164Z,99.20
2018-07-12T22:39:24.456Z,99.30
2018-07-12T22:41:52.729Z,99.30
2018-07-12T22:44:20.789Z,99.50
2018-07-12T22:46:49.071Z,99.60
2018-07-12T22:49:17.241Z,99.70
2018-07-12T22:51:45.408Z,99.80
2018-07-12T22:56:41.530Z,99.90
2018-07-12T22:59:09.700Z,99.90
2018-07-12T23:01:37.873Z,99.90
2018-07-12T23:04:06.059Z,99.90
2018-07-12T23:06:34.314Z,99.90
2018-07-12T23:09:02.388Z,99.90
2018-07-12T23:11:30.564Z,99.90
2018-07-12T23:13:58.744Z,99.90
2018-07-12T23:16:26.897Z,99.90
2018-07-12T23:18:55.069Z,99.90
2018-07-12T23:21:23.239Z,99.90
2018-07-12T23:23:51.620Z,99.90
2018-07-12T23:26:19.799Z,99.90
2018-07-12T23:28:48.033Z,99.90
2018-07-12T23:31:16.183Z,99.90
2018-07-12T23:33:44.363Z,99.90
2018-07-12T23:36:12.571Z,99.90
2018-07-12T23:38:40.738Z,99.90
2018-07-12T23:41:08.935Z,99.90
2018-07-12T23:43:37.106Z,99.90
2018-07-12T23:46:05.337Z,99.90
2018-07-12T23:48:33.869Z,99.90
2018-07-12T23:51:02.061Z,99.90
2018-07-12T23:53:30.244Z,99.90
2018-07-12T23:55:58.454Z,99.90
2018-07-12T23:58:26.633Z,99.90
